This is the latest recevied weather packets stored in our database for station/object AA0PB. If no packets are shown the sender has not sent any weather packets the latest 10 day(s).
| Time | Temp. | Humidity | Pressure | Rain* | Wind** | Luminosity | Snow |
|---|---|---|---|---|---|---|---|
| 1778019987 | 18.33° C | 69% | 1016.5 hPa | 0 mm | - | 338 W/m² | - |
| 1778019683 | 18.33° C | 69% | 1016.9 hPa | 0 mm | - | 332 W/m² | - |
| 1778019381 | 17.22° C | 71% | 1016.8 hPa | 0 mm | - | 324 W/m² | - |
| 1778019077 | 16.67° C | 73% | 1016.8 hPa | 0 mm | - | 328 W/m² | - |
| 1778018775 | 16.67° C | 73% | 1016.9 hPa | 0 mm | - | 349 W/m² | - |
| 1778018472 | 17.22° C | 72% | 1016.8 hPa | 0 mm | - | 320 W/m² | - |
| 1778018170 | 18.33° C | 69% | 1016.8 hPa | 0 mm | - | 315 W/m² | - |
| 1778017868 | 17.78° C | 69% | 1016.6 hPa | 0 mm | - | 343 W/m² | - |
| 1778017566 | 17.78° C | 71% | 1016.9 hPa | 0 mm | - | 681 W/m² | - |
| 1778017262 | 17.78° C | 70% | 1017 hPa | 0 mm | - | 648 W/m² | - |
| 1778016960 | 17.22° C | 74% | 1017 hPa | 0 mm | - | 555 W/m² | - |
| 1778016656 | 17.22° C | 71% | 1017.1 hPa | 0 mm | - | 509 W/m² | - |
| 1778016352 | 16.67° C | 75% | 1017.2 hPa | 0 mm | - | 668 W/m² | - |
| 1778016050 | 17.22° C | 73% | 1017 hPa | 0 mm | - | 364 W/m² | - |
| 1778015741 | 17.22° C | 73% | 1017 hPa | 0 mm | - | 380 W/m² | - |
| 1778015438 | 16.67° C | 73% | 1017.3 hPa | 0 mm | - | 370 W/m² | - |
| 1778015134 | 16.67° C | 74% | 1017 hPa | 0 mm | - | 315 W/m² | - |
| 1778014832 | 16.67° C | 74% | 1017.1 hPa | 0 mm | - | 266 W/m² | - |
| 1778014530 | 16.67° C | 73% | 1017 hPa | 0 mm | - | 247 W/m² | - |
| 1778014227 | 16.67° C | 74% | 1017.2 hPa | 0 mm | - | 228 W/m² | - |
| 1778013924 | 16.67° C | 75% | 1017.2 hPa | 0 mm | - | 225 W/m² | - |
| 1778013621 | 16.67° C | 73% | 1017.2 hPa | 0 mm | - | 243 W/m² | - |
| 1778013318 | 16.67° C | 75% | 1017.2 hPa | 0 mm | - | 244 W/m² | - |
| 1778013015 | 16.67° C | 74% | 1017.4 hPa | 0 mm | - | 266 W/m² | - |
| 1778012711 | 15.56° C | 77% | 1017.2 hPa | 0 mm | - | 267 W/m² | - |
* Rain latest hour (hover to see other rain measurements)
** Current wind speed in m/s (hover to see current wind gust speed)